Time;durP1;ratioP1;P1;durP2;ratioP2;P2;SDS_P1;SDS_P2;PMS_P1;PMS_P2;Temp;Humidity;BMP_temperature;BMP_pressure;BME280_temperature;BME280_humidity;BME280_pressure;Samples;Min_cycle;Max_cycle;Signal;HPM_P1;HPM_P2
2022/07/07 00:00:47;;;;;;;2.10;1.90;;;;;;;25.26;48.28;100861.31;5125921;27;20531;-72
2022/07/07 00:03:15;;;;;;;2.38;1.90;;;;;;;25.28;47.21;100873.75;5123287;27;20393;-72
2022/07/07 00:05:43;;;;;;;1.00;1.00;;;;;;;25.13;48.50;100869.06;5098468;27;20056;-72
2022/07/07 00:08:11;;;;;;;1.67;1.50;;;;;;;24.99;48.24;100864.03;5112844;28;20394;-72
2022/07/07 00:10:39;;;;;;;2.83;1.85;;;;;;;24.98;48.51;100856.81;5115841;27;20409;-72
2022/07/07 00:13:07;;;;;;;3.20;1.30;;;;;;;24.87;48.52;100860.22;5112235;28;20048;-72
2022/07/07 00:15:35;;;;;;;1.40;1.30;;;;;;;24.77;49.11;100855.22;5113121;28;20052;-72
2022/07/07 00:18:04;;;;;;;1.48;1.38;;;;;;;24.72;50.24;100858.34;5112140;28;20445;-72
2022/07/07 00:20:32;;;;;;;3.33;1.60;;;;;;;24.69;50.87;100857.09;5112413;28;20059;-72
2022/07/07 00:23:00;;;;;;;1.77;1.67;;;;;;;24.64;51.15;100844.19;5113137;28;20036;-72
2022/07/07 00:25:28;;;;;;;2.17;1.67;;;;;;;24.67;51.64;100849.06;5113314;28;20035;-72
2022/07/07 00:27:56;;;;;;;1.60;1.50;;;;;;;24.63;51.31;100859.34;5113150;28;20063;-71
2022/07/07 00:30:24;;;;;;;1.48;1.38;;;;;;;24.49;51.90;100848.69;5112218;28;20059;-72
2022/07/07 00:32:52;;;;;;;1.75;1.27;;;;;;;24.45;51.96;100847.00;5115606;27;20379;-72
2022/07/07 00:35:19;;;;;;;2.35;1.70;;;;;;;24.37;52.58;100841.28;5112873;28;20044;-71
2022/07/07 00:38:07;;;;;;;2.22;1.70;;;;;;;24.46;51.66;100845.84;5116170;28;20043;-73
2022/07/07 00:40:35;;;;;;;1.50;1.33;;;;;;;24.48;51.94;100847.09;5112931;28;20756;-72
2022/07/07 00:43:04;;;;;;;1.60;1.50;;;;;;;24.39;52.35;100838.91;5111891;28;20055;-72
2022/07/07 00:45:32;;;;;;;1.77;1.67;;;;;;;24.40;52.97;100839.75;5112142;28;20043;-72
2022/07/07 00:48:00;;;;;;;2.60;1.85;;;;;;;24.41;52.15;100831.00;5111400;28;20043;-72
2022/07/07 00:50:28;;;;;;;1.55;1.45;;;;;;;24.19;52.89;100835.31;5112178;28;20114;-72
2022/07/07 00:52:56;;;;;;;1.92;1.70;;;;;;;24.11;53.32;100839.16;5130045;27;20046;-72
2022/07/07 00:55:24;;;;;;;3.70;1.80;;;;;;;24.02;53.69;100839.34;5128276;27;20062;-72
2022/07/07 00:57:52;;;;;;;1.60;1.50;;;;;;;23.94;53.45;100837.56;5131646;27;20091;-72
2022/07/07 01:00:20;;;;;;;2.78;1.67;;;;;;;23.97;53.24;100856.38;5132334;27;20043;-71
2022/07/07 01:02:52;;;;;;;2.05;1.90;;;;;;;23.92;53.72;100851.91;5132333;27;20047;-72
2022/07/07 01:05:22;;;;;;;2.42;1.80;;;;;;;23.94;53.19;100857.94;5132175;27;20043;-72
2022/07/07 01:07:53;;;;;;;2.28;1.80;;;;;;;23.95;54.16;100859.53;5132056;27;20051;-72
2022/07/07 01:10:21;;;;;;;2.72;1.95;;;;;;;23.88;53.41;100854.63;5132427;27;20047;-72
2022/07/07 01:12:49;;;;;;;1.73;1.63;;;;;;;23.82;53.89;100852.47;5132158;27;20050;-72
2022/07/07 01:15:17;;;;;;;1.55;1.45;;;;;;;23.77;54.39;100850.78;5117153;27;20046;-72
2022/07/07 01:17:45;;;;;;;1.60;1.50;;;;;;;23.74;54.25;100849.53;5131993;27;20081;-72
2022/07/07 01:20:16;;;;;;;3.05;2.00;;;;;;;23.70;54.15;100851.41;5132091;27;20535;-72
2022/07/07 01:22:48;;;;;;;1.88;1.67;;;;;;;23.78;54.03;100838.41;5132202;27;20047;-72
2022/07/07 01:25:15;;;;;;;4.80;2.28;;;;;;;23.89;54.16;100849.81;5131846;27;20039;-72
2022/07/07 01:27:44;;;;;;;2.72;1.50;;;;;;;24.15;52.47;100845.63;5132388;27;20043;-72
2022/07/07 01:30:12;;;;;;;2.47;1.88;;;;;;;24.14;53.46;100844.00;5131335;27;20050;-72
2022/07/07 01:32:40;;;;;;;1.70;1.60;;;;;;;24.04;53.11;100839.78;5131282;27;20055;-72
2022/07/07 01:35:09;;;;;;;2.40;1.52;;;;;;;23.88;53.35;100837.84;5132652;27;20047;-72
2022/07/07 01:37:37;;;;;;;1.98;1.80;;;;;;;23.86;52.93;100842.97;5131973;27;20047;-72
2022/07/07 01:40:05;;;;;;;2.17;1.73;;;;;;;24.07;53.34;100836.28;5132337;28;20050;-72
2022/07/07 01:42:33;;;;;;;3.15;2.10;;;;;;;24.22;53.71;100833.78;5132629;28;20046;-72
2022/07/07 01:45:02;;;;;;;3.42;1.80;;;;;;;24.20;53.38;100824.97;5132769;28;20535;-72
2022/07/07 01:47:31;;;;;;;2.15;1.80;;;;;;;24.13;53.83;100836.78;5131508;28;20389;-72
2022/07/07 01:49:59;;;;;;;1.95;1.70;;;;;;;24.03;53.90;100838.97;5124926;28;20040;-72
2022/07/07 01:52:27;;;;;;;1.80;1.70;;;;;;;23.96;54.11;100826.81;5125488;28;20054;-72
2022/07/07 01:54:55;;;;;;;1.95;1.50;;;;;;;23.89;54.29;100839.47;5128247;28;20473;-72
2022/07/07 01:57:23;;;;;;;2.10;1.90;;;;;;;23.82;55.20;100833.72;5131921;28;20062;-72
2022/07/07 01:59:50;;;;;;;1.70;1.60;;;;;;;23.80;54.77;100830.47;5131488;28;20058;-72
2022/07/07 02:02:18;;;;;;;2.70;1.70;;;;;;;23.68;55.79;100827.81;5132699;28;20054;-72
2022/07/07 02:04:46;;;;;;;2.45;1.80;;;;;;;23.60;56.11;100836.03;5131664;28;20039;-72
2022/07/07 02:07:15;;;;;;;1.40;1.30;;;;;;;23.76;54.44;100840.78;5131918;28;20058;-72
2022/07/07 02:09:43;;;;;;;1.65;1.55;;;;;;;23.72;55.20;100835.13;5134541;27;20047;-72
2022/07/07 02:12:11;;;;;;;1.65;1.42;;;;;;;23.67;54.90;100840.16;5136588;27;20047;-72
2022/07/07 02:14:39;;;;;;;2.00;1.77;;;;;;;23.65;54.81;100839.72;5135577;27;20066;-72
2022/07/07 02:17:07;;;;;;;2.35;1.63;;;;;;;23.52;55.17;100841.81;5135809;27;20409;-73
2022/07/07 02:19:35;;;;;;;1.60;1.50;;;;;;;23.56;55.01;100843.50;5135915;27;20090;-72
2022/07/07 02:22:03;;;;;;;1.38;1.25;;;;;;;23.46;56.03;100844.09;5127077;27;20040;-72
2022/07/07 02:24:30;;;;;;;1.60;1.50;;;;;;;23.51;54.62;100837.41;5126788;27;20055;-72
2022/07/07 02:26:58;;;;;;;1.63;1.52;;;;;;;23.58;54.88;100838.38;5114871;28;20051;-72
2022/07/07 02:29:26;;;;;;;2.35;1.60;;;;;;;23.47;55.35;100831.75;5114348;28;20051;-72
2022/07/07 02:31:55;;;;;;;2.65;1.42;;;;;;;23.56;53.96;100826.75;5115317;28;20047;-72
2022/07/07 02:34:23;;;;;;;1.70;1.23;;;;;;;23.69;53.34;100835.00;5115325;28;20035;-72
2022/07/07 02:36:51;;;;;;;1.83;1.60;;;;;;;23.68;53.82;100836.19;5114316;28;20048;-72
2022/07/07 02:39:19;;;;;;;2.08;1.52;;;;;;;23.74;53.65;100837.53;5113936;28;20058;-72
2022/07/07 02:41:47;;;;;;;2.13;1.60;;;;;;;23.72;54.25;100829.53;5114439;28;20048;-72
2022/07/07 02:44:14;;;;;;;1.50;1.40;;;;;;;23.75;53.44;100836.34;5114693;28;20056;-73
2022/07/07 02:46:42;;;;;;;2.20;1.38;;;;;;;23.72;53.89;100825.91;5114619;28;20056;-72
2022/07/07 02:49:10;;;;;;;1.75;1.65;;;;;;;23.47;55.93;100817.78;5115033;28;20044;-72
2022/07/07 02:51:39;;;;;;;1.77;1.67;;;;;;;23.30;55.93;100819.75;5114200;27;20133;-72
2022/07/07 02:54:06;;;;;;;4.18;1.90;;;;;;;23.21;56.18;100825.50;5130544;27;20043;-72
2022/07/07 02:56:34;;;;;;;1.90;1.60;;;;;;;23.22;56.56;100823.53;5115709;27;20046;-72
2022/07/07 02:59:02;;;;;;;3.15;1.60;;;;;;;23.23;57.33;100831.53;5114384;28;20054;-72
2022/07/07 03:01:30;;;;;;;1.85;1.75;;;;;;;23.23;56.55;100847.50;5117780;27;20043;-72
2022/07/07 03:03:58;;;;;;;1.65;1.48;;;;;;;23.37;54.00;100876.97;5132974;27;20057;-71
2022/07/07 03:06:26;;;;;;;1.52;1.40;;;;;;;23.58;53.70;100882.25;5102450;28;20497;-72
2022/07/07 03:08:54;;;;;;;1.60;1.50;;;;;;;23.67;52.25;100879.28;5120452;27;20111;-72
2022/07/07 03:11:22;;;;;;;3.25;1.60;;;;;;;23.61;52.73;100879.53;5113842;28;20048;-72
2022/07/07 03:13:50;;;;;;;2.78;1.52;;;;;;;23.68;52.83;100878.09;5114601;28;20039;-72
2022/07/07 03:16:19;;;;;;;1.30;1.20;;;;;;;23.78;51.85;100883.13;5114541;28;20390;-72
2022/07/07 03:18:47;;;;;;;3.28;1.25;;;;;;;23.80;52.51;100883.56;5113544;28;20052;-72
2022/07/07 03:21:15;;;;;;;2.92;1.50;;;;;;;23.83;52.31;100879.22;5112762;28;20097;-72
2022/07/07 03:23:43;;;;;;;1.55;1.45;;;;;;;23.76;52.88;100874.31;5096296;28;20390;-72
2022/07/07 03:26:11;;;;;;;1.70;1.60;;;;;;;23.87;51.15;100878.16;5113570;28;20051;-72
2022/07/07 03:28:39;;;;;;;1.90;1.30;;;;;;;23.94;51.28;100882.28;5113088;28;20394;-72
2022/07/07 03:31:07;;;;;;;2.35;1.35;;;;;;;23.93;51.13;100884.25;5113156;28;20055;-72
2022/07/07 03:33:35;;;;;;;2.10;1.63;;;;;;;23.95;50.94;100892.28;5113464;28;20055;-73
2022/07/07 03:36:03;;;;;;;1.45;1.35;;;;;;;23.88;51.01;100892.94;5113704;28;20056;-72
2022/07/07 03:38:31;;;;;;;1.45;1.35;;;;;;;23.88;52.15;100895.72;5113826;28;20405;-72
2022/07/07 03:41:00;;;;;;;1.85;1.75;;;;;;;23.87;52.65;100894.09;5114233;28;20036;-72
2022/07/07 03:43:30;;;;;;;1.85;1.70;;;;;;;23.83;52.86;100894.03;5113146;28;20055;-72
2022/07/07 03:45:58;;;;;;;2.20;2.00;;;;;;;23.67;52.41;100896.03;5114165;27;20047;-72
2022/07/07 03:48:28;;;;;;;2.90;2.58;;;;;;;23.59;52.64;100898.66;5126192;27;20052;-72
2022/07/07 03:50:56;;;;;;;2.30;2.10;;;;;;;23.51;53.09;100896.84;5125509;27;20405;-72
2022/07/07 03:53:24;;;;;;;5.63;2.63;;;;;;;23.48;52.50;100898.41;5133332;27;20156;-72
2022/07/07 03:55:53;;;;;;;3.13;2.30;;;;;;;23.59;51.31;100909.84;5129634;27;20062;-71
2022/07/07 03:58:21;;;;;;;2.40;2.17;;;;;;;23.73;51.83;100908.53;5133509;27;20051;-72
2022/07/07 04:00:49;;;;;;;2.22;2.03;;;;;;;23.80;51.36;100908.72;5133301;27;20043;-72
2022/07/07 04:03:17;;;;;;;2.28;2.08;;;;;;;23.84;50.64;100909.63;5133831;27;20070;-72
2022/07/07 04:05:45;;;;;;;1.90;1.50;;;;;;;24.00;49.33;100914.38;5133113;27;20512;-72
2022/07/07 04:08:13;;;;;;;1.30;1.20;;;;;;;24.16;47.90;100906.75;5133829;27;20039;-72
2022/07/07 04:10:41;;;;;;;1.50;1.40;;;;;;;24.28;47.81;100907.78;5133545;27;20052;-72
2022/07/07 04:13:10;;;;;;;1.27;1.00;;;;;;;24.38;48.38;100912.00;5133160;27;20058;-72
2022/07/07 04:15:37;;;;;;;1.45;1.35;;;;;;;24.52;46.52;100906.72;5133401;27;20060;-72
2022/07/07 04:18:06;;;;;;;0.93;0.93;;;;;;;24.53;47.45;100896.31;5133265;27;20058;-72
2022/07/07 04:20:34;;;;;;;0.93;0.93;;;;;;;24.47;46.95;100900.59;5132973;27;20493;-72
2022/07/07 04:23:02;;;;;;;1.02;1.02;;;;;;;24.39;47.79;100911.63;5133355;27;20043;-72
2022/07/07 04:25:33;;;;;;;1.35;1.25;;;;;;;24.31;47.77;100903.47;5132585;27;20039;-72
2022/07/07 04:28:01;;;;;;;2.55;1.60;;;;;;;24.26;49.04;100893.38;5123220;27;20055;-72
2022/07/07 04:30:29;;;;;;;2.47;1.63;;;;;;;24.14;49.25;100897.94;5115899;27;20114;-72
2022/07/07 04:32:57;;;;;;;1.85;1.25;;;;;;;24.16;49.04;100903.97;5114331;27;20512;-72
2022/07/07 04:35:26;;;;;;;1.60;1.50;;;;;;;24.12;49.18;100908.69;5133282;27;20051;-72
2022/07/07 04:37:54;;;;;;;1.35;1.25;;;;;;;24.06;49.69;100910.13;5124529;27;20506;-72
2022/07/07 04:40:22;;;;;;;1.30;1.20;;;;;;;24.08;49.48;100916.16;5114874;27;20044;-72
2022/07/07 04:42:50;;;;;;;2.08;1.02;;;;;;;24.16;49.78;100915.13;5131067;27;20050;-73
2022/07/07 04:45:18;;;;;;;2.25;1.58;;;;;;;24.11;49.72;100912.66;5125627;27;20051;-72
2022/07/07 04:47:46;;;;;;;1.30;1.20;;;;;;;24.06;50.20;100909.28;5117558;27;20055;-72
2022/07/07 04:50:14;;;;;;;1.30;1.20;;;;;;;24.09;50.32;100903.81;5118487;27;20044;-69
2022/07/07 04:52:42;;;;;;;2.65;1.38;;;;;;;24.08;51.21;100907.78;5121261;27;20502;-69
2022/07/07 04:55:10;;;;;;;2.60;1.30;;;;;;;24.14;50.79;100922.28;5113089;28;20470;-69
2022/07/07 04:57:38;;;;;;;1.20;1.20;;;;;;;24.25;50.71;100926.13;5112927;27;20054;-70
2022/07/07 05:00:06;;;;;;;1.67;1.40;;;;;;;24.18;51.13;100922.38;5113375;27;20051;-69
2022/07/07 05:02:35;;;;;;;1.30;1.20;;;;;;;24.06;51.22;100926.88;5116434;27;20039;-79
2022/07/07 05:05:06;;;;;;;1.52;1.42;;;;;;;24.36;50.67;100929.16;5071242;28;20363;-80
2022/07/07 05:07:34;;;;;;;2.75;1.30;;;;;;;24.66;50.50;100920.19;5077923;28;20048;-80
2022/07/07 05:10:03;;;;;;;2.95;1.08;;;;;;;24.81;49.63;100912.09;5082254;28;20040;-80
2022/07/07 05:12:31;;;;;;;2.00;1.70;;;;;;;24.80;49.18;100918.84;5086733;28;20044;-80
2022/07/07 05:14:59;;;;;;;1.55;1.45;;;;;;;24.72;49.65;100923.47;5066664;27;20054;-79
2022/07/07 05:17:27;;;;;;;1.60;1.50;;;;;;;24.72;49.08;100922.69;5061784;28;20064;-78
2022/07/07 05:19:55;;;;;;;2.35;1.38;;;;;;;24.90;48.89;100917.44;5070886;28;20048;-79
2022/07/07 05:22:23;;;;;;;3.08;1.33;;;;;;;24.93;48.99;100922.31;5074721;28;20505;-80
2022/07/07 05:24:51;;;;;;;1.73;1.63;;;;;;;25.05;48.94;100918.53;5090855;28;20047;-80
2022/07/07 05:27:21;;;;;;;2.95;1.88;;;;;;;25.18;48.99;100927.56;5087975;28;20051;-79
2022/07/07 05:29:50;;;;;;;1.98;1.80;;;;;;;25.14;48.61;100924.72;5073718;28;20070;-80
2022/07/07 05:32:18;;;;;;;1.70;1.60;;;;;;;25.05;48.94;100922.16;5065957;28;20044;-79
2022/07/07 05:34:46;;;;;;;2.47;1.60;;;;;;;24.69;50.04;100924.25;5058594;28;20395;-80
2022/07/07 05:37:14;;;;;;;1.85;1.63;;;;;;;24.84;51.09;100925.34;5079071;28;20047;-79
2022/07/07 05:39:42;;;;;;;1.30;1.20;;;;;;;24.75;51.21;100917.16;5066608;28;20040;-80
2022/07/07 05:42:10;;;;;;;2.40;1.67;;;;;;;24.98;50.80;100936.03;5083910;28;20044;-80
2022/07/07 05:44:38;;;;;;;3.38;2.25;;;;;;;24.89;50.37;100929.84;5068892;28;20040;-81
2022/07/07 05:47:06;;;;;;;2.25;1.88;;;;;;;25.05;50.05;100929.72;5061528;28;20419;-81
2022/07/07 05:49:34;;;;;;;2.15;1.88;;;;;;;25.06;49.63;100931.34;5082373;28;20036;-81
2022/07/07 05:52:03;;;;;;;2.05;1.85;;;;;;;25.06;50.59;100928.53;5081765;28;20055;-81
2022/07/07 05:54:30;;;;;;;2.65;1.67;;;;;;;25.13;49.79;100933.47;5061241;28;20040;-81
2022/07/07 05:56:59;;;;;;;1.50;1.40;;;;;;;25.34;49.01;100935.84;5086503;28;20051;-81
2022/07/07 05:59:27;;;;;;;4.28;1.70;;;;;;;25.55;47.09;100929.03;5082797;28;20059;-81
2022/07/07 06:01:55;;;;;;;1.60;1.50;;;;;;;25.67;46.82;100933.63;5065571;28;20052;-81
2022/07/07 06:04:24;;;;;;;1.50;1.40;;;;;;;25.66;46.84;100930.00;5063912;28;20040;-81
2022/07/07 06:06:53;;;;;;;1.88;1.77;;;;;;;25.77;46.30;100918.97;5059438;28;20050;-81
2022/07/07 06:09:23;;;;;;;1.63;1.52;;;;;;;25.87;46.02;100929.53;5063969;28;20398;-81
2022/07/07 06:11:51;;;;;;;1.65;1.30;;;;;;;25.74;46.01;100936.53;5062194;28;20055;-80
2022/07/07 06:14:19;;;;;;;1.70;1.60;;;;;;;25.75;45.60;100933.34;5087339;28;20063;-80
2022/07/07 06:16:47;;;;;;;1.25;1.15;;;;;;;25.98;45.49;100935.31;5087095;28;20040;-81
2022/07/07 06:19:15;;;;;;;1.70;1.60;;;;;;;25.92;47.02;100936.81;5089668;28;20087;-81
2022/07/07 06:21:44;;;;;;;1.75;1.60;;;;;;;25.92;47.25;100939.63;5059437;28;20054;-81
2022/07/07 06:24:12;;;;;;;1.45;1.23;;;;;;;25.89;47.10;100929.16;5085192;28;20051;-81
2022/07/07 06:26:40;;;;;;;1.73;1.63;;;;;;;25.79;47.73;100933.41;5068507;28;20392;-81
2022/07/07 06:29:08;;;;;;;1.80;1.70;;;;;;;25.64;48.30;100932.38;5070262;28;20052;-82
2022/07/07 06:31:36;;;;;;;2.25;1.48;;;;;;;25.71;48.66;100926.09;5056345;28;20041;-81
2022/07/07 06:34:04;;;;;;;2.00;1.52;;;;;;;25.86;48.19;100932.72;5077937;28;20040;-81
2022/07/07 06:36:32;;;;;;;2.80;1.50;;;;;;;25.90;48.30;100927.94;5073496;28;20418;-81
2022/07/07 06:39:00;;;;;;;1.40;1.30;;;;;;;26.12;48.18;100933.88;5067804;28;20050;-81
2022/07/07 06:41:36;;;;;;;1.98;1.67;;;;;;;26.08;47.87;100935.81;5072941;28;20098;-81
2022/07/07 06:44:05;;;;;;;2.15;1.75;;;;;;;26.22;48.16;100941.63;5056900;28;20391;-81
2022/07/07 06:46:33;;;;;;;3.42;1.60;;;;;;;26.09;48.10;100937.47;5068918;28;20052;-81
2022/07/07 06:49:03;;;;;;;1.80;1.70;;;;;;;26.46;47.55;100939.59;5056217;28;20048;-81
2022/07/07 06:51:32;;;;;;;1.85;1.67;;;;;;;26.57;46.17;100936.91;5059416;28;20510;-81
2022/07/07 06:54:00;;;;;;;1.30;1.30;;;;;;;26.50;46.38;100939.63;5073492;28;20067;-81
2022/07/07 06:56:28;;;;;;;1.83;1.67;;;;;;;26.60;45.96;100935.31;5074979;28;20078;-81
2022/07/07 06:58:56;;;;;;;2.05;1.80;;;;;;;26.51;45.41;100930.81;5076725;28;20044;-81
2022/07/07 07:01:24;;;;;;;1.48;1.38;;;;;;;26.84;45.40;100931.22;5074481;28;20036;-81
2022/07/07 07:03:52;;;;;;;1.55;1.45;;;;;;;26.92;45.04;100926.47;5069807;28;20047;-81
2022/07/07 07:06:20;;;;;;;2.10;1.90;;;;;;;27.10;44.69;100930.31;5078934;28;20055;-81
2022/07/07 07:08:48;;;;;;;1.80;1.60;;;;;;;27.41;44.34;100930.16;5077006;28;20059;-81
2022/07/07 07:11:17;;;;;;;1.63;1.52;;;;;;;27.40;43.48;100941.78;5074976;28;20044;-81
2022/07/07 07:13:47;;;;;;;1.85;1.75;;;;;;;27.83;42.77;100942.19;5093389;28;20055;-81
2022/07/07 07:16:16;;;;;;;2.90;1.42;;;;;;;27.57;43.34;100941.13;5070567;28;20056;-80
2022/07/07 07:18:45;;;;;;;1.50;1.40;;;;;;;27.54;42.35;100947.53;5082667;28;20059;-81
2022/07/07 07:21:13;;;;;;;1.58;1.42;;;;;;;27.68;42.44;100951.69;5076624;28;20048;-81
2022/07/07 07:23:41;;;;;;;1.63;1.52;;;;;;;27.36;42.76;100942.56;5095383;28;20040;-81
2022/07/07 07:26:09;;;;;;;1.67;1.55;;;;;;;27.43;43.29;100939.03;5076430;28;20048;-81
2022/07/07 07:28:37;;;;;;;2.80;1.50;;;;;;;27.59;44.43;100944.41;5076961;28;20065;-81
2022/07/07 07:31:06;;;;;;;2.05;1.90;;;;;;;27.78;43.37;100939.72;5076231;28;20051;-80
2022/07/07 07:33:36;;;;;;;1.70;1.60;;;;;;;27.66;44.34;100940.81;5092739;28;20047;-81
2022/07/07 07:36:07;;;;;;;2.08;1.90;;;;;;;27.35;44.91;100940.16;5076043;28;20048;-80
2022/07/07 07:38:37;;;;;;;3.15;1.30;;;;;;;27.59;44.82;100944.41;5108825;28;20048;-81
2022/07/07 07:41:08;;;;;;;4.88;1.85;;;;;;;27.83;44.52;100946.97;5114410;28;20039;-81
2022/07/07 07:43:36;;;;;;;4.78;2.00;;;;;;;27.90;44.57;100944.22;5114213;28;20398;-81
2022/07/07 07:46:08;;;;;;;1.58;1.48;;;;;;;27.86;44.82;100947.00;5112590;28;20053;-81
2022/07/07 07:48:36;;;;;;;2.00;1.90;;;;;;;27.65;44.56;100944.06;5113933;28;20048;-81
2022/07/07 07:51:04;;;;;;;1.77;1.67;;;;;;;27.61;45.16;100942.00;5099769;28;20048;-80
2022/07/07 07:53:32;;;;;;;2.75;1.38;;;;;;;27.46;44.69;100945.88;5105410;28;20481;-80
2022/07/07 07:56:01;;;;;;;2.88;1.98;;;;;;;27.56;45.49;100933.91;5103016;28;20044;-80
2022/07/07 07:58:30;;;;;;;2.53;1.73;;;;;;;27.92;44.05;100941.00;5102399;28;20059;-80
2022/07/07 08:00:58;;;;;;;1.73;1.63;;;;;;;28.00;44.17;100935.03;5099484;28;20056;-80
2022/07/07 08:03:28;;;;;;;1.70;1.60;;;;;;;28.22;43.52;100945.59;5095108;28;20055;-80
2022/07/07 08:06:02;;;;;;;2.05;1.95;;;;;;;28.49;43.44;100936.94;5098465;28;20044;-81
2022/07/07 08:08:30;;;;;;;1.73;1.63;;;;;;;27.94;43.11;100938.63;5104120;28;20059;-80
2022/07/07 08:10:59;;;;;;;1.92;1.70;;;;;;;28.07;43.51;100933.47;5113416;28;20046;-80
2022/07/07 08:13:31;;;;;;;1.95;1.52;;;;;;;27.91;43.91;100931.78;5107571;28;20050;-80
2022/07/07 08:16:01;;;;;;;2.95;1.65;;;;;;;28.11;44.10;100917.44;5106036;28;20040;-80
2022/07/07 08:18:29;;;;;;;1.42;1.33;;;;;;;28.43;42.93;100923.25;5098254;28;20054;-80
2022/07/07 08:20:58;;;;;;;2.10;1.55;;;;;;;28.63;42.56;100928.53;5093737;28;20059;-80
2022/07/07 08:23:26;;;;;;;3.25;1.70;;;;;;;28.61;42.56;100918.88;5108415;28;20044;-80
2022/07/07 08:25:54;;;;;;;1.80;1.70;;;;;;;28.66;42.30;100930.56;5112219;28;20044;-81
2022/07/07 08:28:31;;;;;;;2.38;1.50;;;;;;;28.64;41.44;100920.91;5111860;28;20043;-81
2022/07/07 08:30:59;;;;;;;1.92;1.83;;;;;;;28.93;41.85;100927.44;5114371;27;20043;-81
2022/07/07 08:33:27;;;;;;;1.70;1.60;;;;;;;28.75;41.44;100916.13;5133697;27;20390;-80
2022/07/07 08:35:55;;;;;;;2.10;1.90;;;;;;;28.43;41.50;100934.50;5133501;27;20054;-81
2022/07/07 08:38:23;;;;;;;3.03;1.70;;;;;;;28.65;40.71;100940.22;5133580;27;20058;-80
2022/07/07 08:40:51;;;;;;;2.10;2.00;;;;;;;28.84;40.61;100929.81;5133787;27;20408;-81
2022/07/07 08:43:20;;;;;;;2.88;1.80;;;;;;;28.69;40.62;100932.56;5133639;27;20043;-80
2022/07/07 08:45:49;;;;;;;1.77;1.67;;;;;;;28.78;41.23;100935.00;5133515;27;20054;-80
2022/07/07 08:48:18;;;;;;;4.00;1.58;;;;;;;28.87;40.25;100945.94;5133589;27;20043;-80
2022/07/07 08:50:46;;;;;;;1.92;1.80;;;;;;;28.82;40.20;100938.66;5119221;27;20063;-80
2022/07/07 08:53:16;;;;;;;2.92;1.80;;;;;;;28.69;40.43;100941.03;5119362;27;20054;-81
2022/07/07 08:55:47;;;;;;;1.60;1.50;;;;;;;28.61;40.74;100938.56;5133561;27;20062;-80
2022/07/07 08:58:18;;;;;;;1.52;1.42;;;;;;;28.65;40.33;100933.78;5133365;27;20508;-80
2022/07/07 09:01:07;;;;;;;3.45;1.60;;;;;;;28.22;41.26;100923.94;5133242;27;20049;-80
2022/07/07 09:03:35;;;;;;;2.78;1.83;;;;;;;28.54;40.59;100912.00;5133392;27;20043;-80
2022/07/07 09:06:04;;;;;;;2.08;1.40;;;;;;;28.91;40.56;100920.59;5133377;27;20047;-81
2022/07/07 09:08:33;;;;;;;1.90;1.80;;;;;;;28.99;39.73;100938.31;5133241;27;20043;-80
2022/07/07 09:11:06;;;;;;;1.35;1.35;;;;;;;28.90;39.45;100933.06;5115093;27;20043;-80
2022/07/07 09:13:34;;;;;;;;;;;;;;;29.04;39.36;100926.66;5133560;27;20043;-80
2022/07/07 09:16:12;;;;;;;2.40;1.40;;;;;;;29.19;39.76;100927.47;5133327;27;19919;-80
2022/07/07 09:18:45;;;;;;;3.85;1.80;;;;;;;28.93;38.74;100947.16;5132722;27;20043;-81
2022/07/07 09:21:31;;;;;;;1.60;1.50;;;;;;;29.00;38.79;100932.28;5133326;27;20043;-80
2022/07/07 09:24:01;;;;;;;1.60;1.50;;;;;;;28.94;38.63;100923.41;5119989;27;20397;-81
2022/07/07 09:26:41;;;;;;;1.95;1.33;;;;;;;29.22;38.34;100909.75;5133106;27;20054;-80
2022/07/07 09:29:13;;;;;;;2.28;1.50;;;;;;;29.30;38.25;100917.03;5120233;27;20489;-81
2022/07/07 09:32:05;;;;;;;1.80;1.70;;;;;;;29.55;36.99;100921.88;5132757;27;20494;-80
2022/07/07 09:34:36;;;;;;;1.70;1.60;;;;;;;29.45;36.01;100926.28;5114542;27;20401;-80
2022/07/07 09:39:55;;;;;;;1.95;1.30;;;;;;;29.81;36.50;100933.91;5132850;27;20393;-80
2022/07/07 09:42:36;;;;;;;1.95;1.70;;;;;;;29.61;36.01;100919.44;5132748;28;20062;-80
2022/07/07 09:45:12;;;;;;;1.63;1.52;;;;;;;29.51;36.75;100923.88;5132828;28;20047;-80
2022/07/07 09:47:40;;;;;;;1.63;1.50;;;;;;;29.70;36.92;100924.66;5132802;28;20062;-81
2022/07/07 09:50:14;;;;;;;1.63;1.52;;;;;;;29.64;36.74;100924.28;5123649;28;20044;-80
2022/07/07 09:52:45;;;;;;;;;;;;;;;29.48;36.22;100921.88;5128725;28;20054;-80
2022/07/07 09:55:14;;;;;;;1.80;1.70;;;;;;;29.41;36.04;100916.22;5132738;28;19919;-81
2022/07/07 09:57:44;;;;;;;3.03;1.70;;;;;;;29.30;36.86;100921.84;5114122;28;20047;-80
2022/07/07 10:00:13;;;;;;;1.33;1.23;;;;;;;28.94;38.32;100931.06;5132761;28;20516;-80
2022/07/07 10:02:44;;;;;;;2.05;1.60;;;;;;;28.64;39.12;100927.31;5132563;28;20039;-80
2022/07/07 10:05:15;;;;;;;3.03;1.77;;;;;;;28.52;39.94;100914.44;5114326;28;20042;-81
2022/07/07 10:07:50;;;;;;;2.78;1.88;;;;;;;28.76;39.89;100906.47;5132376;28;20039;-81
2022/07/07 10:10:20;;;;;;;2.17;1.98;;;;;;;28.53;39.44;100913.22;5132546;28;20039;-80
2022/07/07 10:12:53;;;;;;;1.90;1.80;;;;;;;28.14;40.92;100908.19;5132256;28;20043;-80
2022/07/07 10:15:22;;;;;;;1.98;1.88;;;;;;;28.80;40.99;100912.91;5132525;28;20420;-81
2022/07/07 10:17:50;;;;;;;2.10;2.00;;;;;;;29.19;40.03;100899.31;5132078;28;20409;-80
2022/07/07 10:20:19;;;;;;;1.77;1.67;;;;;;;29.54;38.99;100902.53;5119936;28;20050;-80
2022/07/07 10:22:47;;;;;;;2.08;1.77;;;;;;;29.83;38.69;100902.50;5126327;28;20595;-81
2022/07/07 10:25:15;;;;;;;2.00;1.70;;;;;;;29.60;39.20;100906.56;5114431;28;20039;-80
2022/07/07 10:27:50;;;;;;;2.67;1.65;;;;;;;29.67;39.33;100900.94;5126427;28;20048;-80
2022/07/07 10:30:32;;;;;;;3.22;1.67;;;;;;;29.97;39.22;100896.03;5121143;27;20043;-80
2022/07/07 10:33:04;;;;;;;1.70;1.60;;;;;;;30.06;38.74;100893.59;5099916;27;20486;-81
2022/07/07 10:35:42;;;;;;;1.85;1.75;;;;;;;30.25;38.21;100892.31;5130227;27;20054;-80
2022/07/07 10:38:14;;;;;;;2.13;1.83;;;;;;;30.58;37.93;100880.88;5127137;27;20054;-80
2022/07/07 10:40:51;;;;;;;2.75;1.90;;;;;;;30.48;38.43;100871.25;5122926;27;20043;-80
2022/07/07 10:43:45;;;;;;;1.95;1.85;;;;;;;30.59;37.94;100857.06;5130124;27;20035;-80
2022/07/07 10:46:14;;;;;;;2.05;1.95;;;;;;;30.66;37.17;100861.88;5122068;27;20151;-80
2022/07/07 10:48:52;;;;;;;2.78;1.73;;;;;;;30.73;37.31;100863.88;5134146;27;20051;-81
2022/07/07 10:51:23;;;;;;;2.55;1.80;;;;;;;30.73;37.35;100853.38;5121205;27;20043;-80
2022/07/07 10:54:03;;;;;;;4.50;2.10;;;;;;;30.80;36.77;100861.78;5118998;27;20149;-80
2022/07/07 10:56:53;;;;;;;2.33;2.13;;;;;;;30.94;37.63;100857.28;5113788;28;20119;-80
2022/07/07 10:59:23;;;;;;;1.58;1.48;;;;;;;31.13;36.50;100846.63;5117133;27;20581;-80
2022/07/07 11:02:01;;;;;;;2.25;1.90;;;;;;;31.46;36.08;100835.84;5095168;28;20050;-80
2022/07/07 11:04:41;;;;;;;1.70;1.60;;;;;;;31.26;35.81;100842.06;5120778;27;20047;-80
2022/07/07 11:07:11;;;;;;;1.85;1.75;;;;;;;31.23;36.30;100831.59;5115589;27;20047;-80
2022/07/07 11:09:57;;;;;;;1.88;1.77;;;;;;;31.30;35.64;100837.22;5094898;28;20059;-81
2022/07/07 11:12:43;;;;;;;2.00;1.83;;;;;;;31.39;35.79;100842.38;5121694;27;20423;-80
2022/07/07 11:15:30;;;;;;;1.95;1.73;;;;;;;31.55;34.48;100827.66;5098511;28;20051;-80
2022/07/07 11:18:00;;;;;;;1.10;1.10;;;;;;;31.64;34.86;100827.97;5119719;27;20040;-80
2022/07/07 11:20:30;;;;;;;2.05;1.90;;;;;;;31.58;34.64;100820.38;5113573;27;20039;-80
2022/07/07 11:23:12;;;;;;;1.67;1.58;;;;;;;31.61;34.95;100817.50;5095089;28;20044;-80
2022/07/07 11:25:41;;;;;;;1.88;1.77;;;;;;;31.57;34.89;100805.41;5116325;27;20367;-80
2022/07/07 11:28:11;;;;;;;2.55;1.90;;;;;;;31.63;34.98;100812.22;5116073;27;20043;-80
2022/07/07 11:30:40;;;;;;;1.52;1.42;;;;;;;31.55;34.63;100815.53;5113263;28;20040;-80
2022/07/07 11:33:09;;;;;;;1.80;1.70;;;;;;;31.88;34.64;100810.34;5094404;28;20048;-80
2022/07/07 11:35:40;;;;;;;1.55;1.45;;;;;;;31.84;34.29;100810.41;5113074;27;20040;-80
2022/07/07 11:38:11;;;;;;;1.65;1.55;;;;;;;32.10;33.54;100810.88;5113207;27;20466;-81
2022/07/07 11:40:41;;;;;;;2.75;1.95;;;;;;;32.17;33.93;100802.28;5113071;28;20050;-80